Time;durP1;ratioP1;P1;durP2;ratioP2;P2;SDS_P1;SDS_P2;PMS_P1;PMS_P2;Temp;Humidity;BMP_temperature;BMP_pressure;BME280_temperature;BME280_humidity;BME280_pressure;Samples;Min_cycle;Max_cycle;Signal;HPM_P1;HPM_P2
2022/10/12 00:01:00;;;;;;;4.20;3.55;;;;;;;22.08;60.79;99193.41;2063433;28;20108;-48
2022/10/12 00:02:01;;;;;;;6.03;4.25;;;;;;;22.08;61.01;99191.53;2059033;28;20046;-47
2022/10/12 00:03:02;;;;;;;4.65;3.83;;;;;;;22.07;60.79;99189.06;2059750;28;20419;-46
2022/10/12 00:04:03;;;;;;;4.75;3.88;;;;;;;22.08;60.74;99188.00;2060434;28;20058;-46
2022/10/12 00:05:05;;;;;;;4.55;3.35;;;;;;;22.07;60.76;99186.34;2058437;28;20452;-48
2022/10/12 00:06:08;;;;;;;5.80;3.80;;;;;;;22.06;60.80;99193.63;2057896;28;20424;-48
2022/10/12 00:07:10;;;;;;;4.18;3.75;;;;;;;22.05;61.00;99193.84;2063613;28;20440;-47
2022/10/12 00:08:11;;;;;;;6.15;4.63;;;;;;;22.06;60.71;99187.38;2065047;28;20046;-47
2022/10/12 00:09:13;;;;;;;5.30;4.03;;;;;;;22.06;60.80;99190.94;2062768;28;20050;-47
2022/10/12 00:10:14;;;;;;;5.88;3.53;;;;;;;22.07;60.83;99189.06;2061750;28;20096;-45
2022/10/12 00:11:16;;;;;;;;;;;;;;;21.97;61.05;99191.38;2063073;28;20483;-46
2022/10/12 00:12:17;;;;;;;5.32;3.88;;;;;;;21.98;61.01;99185.78;2062477;28;19925;-46
2022/10/12 00:13:19;;;;;;;4.03;3.63;;;;;;;21.99;60.82;99187.41;2062500;28;20054;-45
2022/10/12 00:14:20;;;;;;;5.43;4.22;;;;;;;22.01;60.99;99187.22;2060562;28;20555;-48
2022/10/12 00:15:23;;;;;;;5.22;4.20;;;;;;;22.04;60.74;99186.78;2062453;28;20129;-45
2022/10/12 00:16:24;;;;;;;6.15;3.22;;;;;;;22.03;60.88;99187.81;2059405;28;20061;-49
2022/10/12 00:17:26;;;;;;;5.38;4.72;;;;;;;22.03;61.02;99191.34;2058213;28;20082;-47
2022/10/12 00:18:27;;;;;;;6.40;3.85;;;;;;;22.04;60.77;99184.09;2062176;28;20057;-48
2022/10/12 00:19:29;;;;;;;4.20;3.80;;;;;;;22.04;60.78;99187.63;2063845;28;20046;-45
2022/10/12 00:20:30;;;;;;;4.13;3.70;;;;;;;22.04;60.77;99189.50;2063822;28;20599;-46
2022/10/12 00:21:32;;;;;;;5.85;4.00;;;;;;;22.03;60.79;99196.75;2062864;28;20125;-47
2022/10/12 00:22:33;;;;;;;4.35;3.53;;;;;;;22.04;60.70;99193.00;2062570;28;20717;-45
2022/10/12 00:23:37;;;;;;;5.85;4.18;;;;;;;22.04;60.70;99190.31;2063253;28;20109;-48
2022/10/12 00:24:37;;;;;;;5.32;4.07;;;;;;;22.03;60.89;99196.75;2058585;28;20041;-47
2022/10/12 00:25:41;;;;;;;6.18;3.85;;;;;;;22.03;60.95;99188.63;2063409;28;20050;-46
2022/10/12 00:26:41;;;;;;;4.93;4.40;;;;;;;22.03;60.81;99190.50;2059918;28;20112;-47
2022/10/12 00:27:45;;;;;;;4.38;3.90;;;;;;;22.02;60.98;99184.28;2061291;28;20058;-46
2022/10/12 00:28:46;;;;;;;5.32;3.80;;;;;;;22.04;60.89;99187.63;2062905;28;20589;-48
2022/10/12 00:29:47;;;;;;;5.03;4.00;;;;;;;22.02;60.93;99178.88;2059385;28;20054;-44
2022/10/12 00:30:49;;;;;;;3.55;3.17;;;;;;;22.03;60.99;99188.63;2062545;28;20401;-45
2022/10/12 00:31:51;;;;;;;4.88;3.97;;;;;;;22.03;60.80;99185.09;2062134;28;20129;-47
2022/10/12 00:32:52;;;;;;;5.10;3.67;;;;;;;22.03;60.82;99182.41;2064678;28;20107;-49
2022/10/12 00:33:55;;;;;;;4.03;3.63;;;;;;;22.04;60.73;99182.22;2062120;28;20116;-46
2022/10/12 00:34:55;;;;;;;4.75;3.53;;;;;;;22.04;60.98;99186.78;2062862;28;20136;-48
2022/10/12 00:35:57;;;;;;;4.15;3.75;;;;;;;22.03;60.90;99185.94;2063369;28;20053;-48
2022/10/12 00:36:58;;;;;;;4.43;4.03;;;;;;;22.03;60.58;99180.53;2063726;28;20054;-48
2022/10/12 00:37:59;;;;;;;;;;;;;;;21.94;61.01;99183.69;2064723;28;20488;-50
2022/10/12 00:39:01;;;;;;;;;;;;;;;21.85;61.48;99183.91;2063955;28;19929;-49
2022/10/12 00:40:03;;;;;;;4.50;3.83;;;;;;;21.90;61.33;99185.13;2057993;28;20008;-48
2022/10/12 00:41:04;;;;;;;5.57;4.07;;;;;;;21.95;61.09;99175.38;2058422;28;20060;-51
2022/10/12 00:42:06;;;;;;;4.43;4.03;;;;;;;21.98;60.90;99183.06;2059789;28;20133;-48
2022/10/12 00:43:24;;;;;;;4.90;3.92;;;;;;;21.97;60.98;99181.38;2061547;28;20050;-45
2022/10/12 00:44:38;;;;;;;5.00;4.35;;;;;;;21.97;60.95;99176.00;2059154;28;21009;-48
2022/10/12 00:45:38;;;;;;;4.95;4.10;;;;;;;21.98;61.16;99182.22;2061938;28;20108;-50
2022/10/12 00:46:45;;;;;;;3.83;3.30;;;;;;;21.98;60.91;99185.78;2062302;28;20124;-47
2022/10/12 00:47:49;;;;;;;4.00;3.58;;;;;;;21.99;61.01;99183.88;2064021;28;20054;-45
2022/10/12 00:48:57;;;;;;;4.88;3.72;;;;;;;21.99;60.91;99182.00;2064369;28;20052;-48
2022/10/12 00:50:02;;;;;;;4.80;3.90;;;;;;;22.00;60.75;99182.84;2066412;28;20050;-45
2022/10/12 00:51:05;;;;;;;4.75;3.67;;;;;;;21.99;61.10;99183.88;2066436;28;20046;-48
2022/10/12 00:52:10;;;;;;;4.82;4.05;;;;;;;21.99;61.00;99184.72;2062093;28;20523;-47
2022/10/12 00:53:16;;;;;;;4.68;3.53;;;;;;;21.99;60.96;99182.00;2059974;28;20057;-50
2022/10/12 00:54:23;;;;;;;5.45;4.22;;;;;;;21.99;61.00;99184.72;2065207;28;20521;-49
2022/10/12 00:55:29;;;;;;;5.05;4.10;;;;;;;21.99;61.23;99187.41;2061069;28;20064;-45
2022/10/12 00:56:32;;;;;;;5.15;3.97;;;;;;;21.98;61.11;99184.91;2058119;28;20050;-48
2022/10/12 00:57:34;;;;;;;5.95;4.43;;;;;;;22.00;60.93;99188.25;2056831;28;20053;-49
2022/10/12 00:58:35;;;;;;;4.95;3.63;;;;;;;21.99;61.08;99186.59;2064307;28;20057;-50
2022/10/12 00:59:41;;;;;;;5.45;4.82;;;;;;;21.99;61.04;99183.88;2060144;28;20113;-50
2022/10/12 01:00:43;;;;;;;3.88;3.40;;;;;;;21.98;60.88;99184.91;2062089;28;20100;-48
2022/10/12 01:01:46;;;;;;;4.68;4.22;;;;;;;21.98;61.04;99193.00;2059657;28;20150;-51
2022/10/12 01:02:49;;;;;;;6.13;4.30;;;;;;;21.99;60.78;99189.28;2062768;28;20111;-47
2022/10/12 01:03:51;;;;;;;5.30;3.60;;;;;;;21.99;60.88;99189.28;2061704;28;20169;-53
2022/10/12 01:04:52;;;;;;;4.78;4.30;;;;;;;21.99;60.96;99181.19;2059779;28;20057;-51
2022/10/12 01:05:55;;;;;;;5.50;3.50;;;;;;;21.98;60.97;99187.63;2060458;28;20085;-49
2022/10/12 01:06:55;;;;;;;4.00;3.63;;;;;;;21.99;61.10;99186.59;2056098;28;20111;-49
2022/10/12 01:07:58;;;;;;;4.10;3.58;;;;;;;21.98;60.83;99183.06;2062459;28;20057;-49
2022/10/12 01:09:00;;;;;;;4.53;3.95;;;;;;;21.99;60.92;99189.28;2059022;28;20050;-47
2022/10/12 01:10:02;;;;;;;4.13;3.72;;;;;;;21.98;60.92;99184.91;2060962;28;20046;-48
2022/10/12 01:11:03;;;;;;;5.15;3.65;;;;;;;21.99;60.77;99184.72;2061423;28;20053;-48
2022/10/12 01:12:07;;;;;;;;;;;;;;;21.89;61.30;99195.13;2061567;28;20504;-48
2022/10/12 01:13:08;;;;;;;4.22;3.80;;;;;;;21.90;61.07;99180.59;2061586;28;19929;-47
2022/10/12 01:14:09;;;;;;;;;;;;;;;21.84;61.31;99189.53;2063167;28;20096;-48
2022/10/12 01:15:10;;;;;;;;;;;;;;;21.76;61.59;99185.19;2063196;28;19982;-45
2022/10/12 01:16:20;;;;;;;5.85;4.00;;;;;;;21.83;61.26;99185.16;2060478;28;19936;-48
2022/10/12 01:17:33;;;;;;;5.40;4.05;;;;;;;21.88;61.37;99184.53;2055390;28;20053;-45
2022/10/12 01:18:44;;;;;;;4.47;4.07;;;;;;;21.91;61.04;99182.25;2058025;28;20054;-47
2022/10/12 01:20:22;;;;;;;4.72;3.72;;;;;;;21.88;61.25;99185.38;2064704;28;20885;-46
2022/10/12 01:21:25;;;;;;;5.05;3.65;;;;;;;21.90;61.10;99180.59;2063678;28;20531;-46
2022/10/12 01:22:32;;;;;;;5.47;4.13;;;;;;;21.92;61.14;99178.50;2063072;28;20043;-47
2022/10/12 01:23:59;;;;;;;6.35;3.88;;;;;;;21.92;61.01;99177.66;2064488;28;20520;-44
2022/10/12 01:25:12;;;;;;;5.47;4.20;;;;;;;21.92;61.29;99172.25;2058255;28;20424;-47
2022/10/12 01:26:34;;;;;;;4.40;4.00;;;;;;;21.90;60.97;99177.03;2061613;28;20043;-47
2022/10/12 01:27:43;;;;;;;;;;;;;;;21.81;61.40;99180.00;2064278;28;20043;-46
2022/10/12 01:28:54;;;;;;;5.63;3.88;;;;;;;21.85;61.33;99180.41;2062186;28;19925;-47
2022/10/12 01:30:06;;;;;;;4.45;3.92;;;;;;;21.85;61.44;99173.13;2059352;28;20050;-50
2022/10/12 01:31:14;;;;;;;4.95;3.95;;;;;;;21.87;61.37;99170.22;2064082;28;20046;-47
2022/10/12 01:32:21;;;;;;;3.78;3.35;;;;;;;21.90;61.35;99177.91;2061621;28;20144;-47
2022/10/12 01:33:32;;;;;;;5.57;3.63;;;;;;;21.90;60.94;99172.50;2065645;28;20053;-48
2022/10/12 01:34:43;;;;;;;5.07;3.70;;;;;;;21.88;61.02;99174.56;2063373;28;20784;-46
2022/10/12 01:35:53;;;;;;;4.22;3.58;;;;;;;21.90;61.23;99172.50;2065191;28;20453;-47
2022/10/12 01:37:01;;;;;;;4.35;3.58;;;;;;;21.89;61.03;99170.81;2060720;28;20054;-45
2022/10/12 01:38:12;;;;;;;4.68;4.25;;;;;;;21.91;61.01;99170.63;2063639;28;20046;-48
2022/10/12 01:39:19;;;;;;;4.50;3.58;;;;;;;21.90;60.85;99167.09;2061722;28;20046;-46
2022/10/12 01:40:26;;;;;;;3.90;3.38;;;;;;;21.91;60.90;99173.31;2065350;28;20069;-48
2022/10/12 01:41:32;;;;;;;6.82;3.80;;;;;;;21.91;61.13;99178.72;2064962;28;20084;-47
2022/10/12 01:42:40;;;;;;;4.32;3.65;;;;;;;21.91;60.88;99168.75;2064323;28;20144;-47
2022/10/12 01:43:44;;;;;;;4.63;4.13;;;;;;;21.91;60.95;99171.44;2062967;28;20092;-47
2022/10/12 01:44:45;;;;;;;4.93;3.70;;;;;;;21.91;60.94;99168.75;2064061;28;20050;-46
2022/10/12 01:45:48;;;;;;;3.92;3.45;;;;;;;21.92;61.17;99166.88;2062706;28;20439;-48
2022/10/12 01:46:50;;;;;;;4.07;3.67;;;;;;;21.92;60.96;99164.97;2061229;28;20133;-45
2022/10/12 01:47:54;;;;;;;6.18;4.03;;;;;;;21.91;61.31;99162.50;2063426;28;20056;-47
2022/10/12 01:48:58;;;;;;;3.95;3.55;;;;;;;21.94;60.91;99164.78;2063071;28;20053;-47
2022/10/12 01:50:01;;;;;;;4.00;3.60;;;;;;;21.92;60.70;99162.28;2059344;28;20073;-46
2022/10/12 01:51:02;;;;;;;4.45;4.05;;;;;;;21.93;60.90;99163.97;2060378;28;20107;-47
2022/10/12 01:52:27;;;;;;;6.85;4.10;;;;;;;21.89;61.00;99162.72;2058022;28;20799;-47
2022/10/12 01:53:36;;;;;;;4.70;3.50;;;;;;;21.88;61.02;99158.38;2061955;28;20053;-46
2022/10/12 01:54:46;;;;;;;4.78;3.90;;;;;;;21.88;60.94;99158.38;2060683;28;20388;-48
2022/10/12 01:55:52;;;;;;;3.83;3.47;;;;;;;21.87;61.11;99164.81;2062337;28;20046;-46
2022/10/12 01:56:59;;;;;;;4.78;3.92;;;;;;;21.87;61.19;99156.72;2060724;28;20483;-46
2022/10/12 01:58:23;;;;;;;4.60;3.85;;;;;;;21.86;61.21;99163.13;2062247;28;20485;-49
2022/10/12 01:59:35;;;;;;;4.18;3.50;;;;;;;21.85;61.14;99158.78;2058954;28;20046;-46
2022/10/12 02:00:42;;;;;;;4.32;3.90;;;;;;;21.87;60.89;99156.72;2060830;28;20058;-48
2022/10/12 02:01:55;;;;;;;4.38;3.35;;;;;;;21.86;60.92;99158.56;2060537;28;20046;-47
2022/10/12 02:03:06;;;;;;;4.40;4.00;;;;;;;21.87;61.20;99154.00;2060682;28;20126;-47
2022/10/12 02:04:15;;;;;;;3.85;3.45;;;;;;;21.88;61.12;99160.25;2060620;28;20123;-46
2022/10/12 02:05:26;;;;;;;5.93;3.85;;;;;;;21.86;60.99;99158.56;2059741;28;20054;-47
2022/10/12 02:06:34;;;;;;;5.28;4.30;;;;;;;21.87;61.02;99151.31;2058347;28;20091;-47
2022/10/12 02:07:41;;;;;;;5.50;4.28;;;;;;;21.89;60.95;99161.88;2063347;28;20054;-46
2022/10/12 02:08:49;;;;;;;4.63;3.90;;;;;;;21.86;60.91;99155.88;2061810;28;20061;-47
2022/10/12 02:09:55;;;;;;;4.43;4.03;;;;;;;21.88;60.97;99163.75;2056661;28;20125;-45
2022/10/12 02:11:01;;;;;;;4.32;3.50;;;;;;;21.87;60.97;99159.41;2059805;28;20046;-48
2022/10/12 02:12:08;;;;;;;3.85;3.20;;;;;;;21.87;60.88;99162.13;2061073;28;20113;-48
2022/10/12 02:13:12;;;;;;;4.35;3.80;;;;;;;21.87;61.00;99162.13;2059070;28;20088;-45
2022/10/12 02:14:16;;;;;;;3.78;3.47;;;;;;;21.87;61.27;99159.41;2055726;28;20137;-49
2022/10/12 02:15:18;;;;;;;4.57;3.63;;;;;;;21.88;60.87;99154.84;2062931;28;20042;-47
2022/10/12 02:16:25;;;;;;;4.80;4.28;;;;;;;21.88;61.02;99161.06;2062911;28;20050;-46
2022/10/12 02:17:29;;;;;;;3.90;3.38;;;;;;;21.88;61.17;99155.66;2057306;28;20054;-46
2022/10/12 02:18:33;;;;;;;5.22;3.80;;;;;;;21.88;61.06;99155.66;2060853;28;20046;-45
2022/10/12 02:19:38;;;;;;;4.35;3.95;;;;;;;21.88;61.02;99147.56;2062296;28;20054;-47
2022/10/12 02:20:40;;;;;;;5.32;3.22;;;;;;;21.88;61.03;99150.25;2063430;28;20050;-46
2022/10/12 02:21:43;;;;;;;3.58;2.88;;;;;;;21.87;61.07;99145.91;2061542;28;20054;-46
2022/10/12 02:22:48;;;;;;;4.22;3.83;;;;;;;21.88;61.14;99150.25;2060075;28;20078;-47
2022/10/12 02:23:51;;;;;;;4.35;3.83;;;;;;;21.87;61.08;99145.91;2061380;28;20113;-48
2022/10/12 02:24:57;;;;;;;3.83;3.42;;;;;;;21.86;61.15;99144.25;2055978;28;20530;-48
2022/10/12 02:26:01;;;;;;;4.43;3.70;;;;;;;21.87;61.05;99151.31;2061266;28;20080;-51
2022/10/12 02:27:03;;;;;;;3.97;3.38;;;;;;;21.87;61.08;99143.22;2058788;28;20050;-48
2022/10/12 02:28:08;;;;;;;3.45;3.15;;;;;;;21.87;60.83;99145.91;2056671;28;20104;-48
2022/10/12 02:29:13;;;;;;;3.85;3.50;;;;;;;21.86;61.23;99141.53;2060438;28;20139;-47
2022/10/12 02:30:14;;;;;;;4.53;3.97;;;;;;;21.86;61.25;99141.53;2060457;28;20053;-47
2022/10/12 02:31:22;;;;;;;3.78;3.25;;;;;;;21.88;60.89;99147.56;2061815;28;20054;-48
2022/10/12 02:32:35;;;;;;;4.10;3.45;;;;;;;21.87;61.19;99148.63;2062321;28;20057;-49
2022/10/12 02:33:41;;;;;;;3.88;3.58;;;;;;;21.85;61.05;99154.22;2062909;28;20045;-46
2022/10/12 02:34:46;;;;;;;4.30;3.90;;;;;;;21.85;61.02;99148.00;2061922;28;20070;-46
2022/10/12 02:35:51;;;;;;;4.13;3.42;;;;;;;21.85;61.15;99151.50;2058900;28;20089;-48
2022/10/12 02:37:05;;;;;;;4.10;3.60;;;;;;;21.85;61.03;99146.13;2060136;28;20136;-46
2022/10/12 02:38:11;;;;;;;5.25;4.47;;;;;;;21.85;61.28;99154.22;2060425;28;20050;-46
2022/10/12 02:39:19;;;;;;;3.60;3.30;;;;;;;21.84;61.29;99146.31;2059266;28;20058;-47
2022/10/12 02:40:26;;;;;;;3.97;3.58;;;;;;;21.85;61.15;99148.00;2063139;28;20042;-47
2022/10/12 02:41:33;;;;;;;4.20;3.50;;;;;;;21.84;61.14;99149.88;2057378;28;20180;-49
2022/10/12 02:42:38;;;;;;;4.47;3.95;;;;;;;21.84;60.98;99144.47;2057467;28;20050;-48
2022/10/12 02:43:45;;;;;;;3.35;3.05;;;;;;;21.84;61.23;99144.47;2063412;28;20053;-46
2022/10/12 02:44:47;;;;;;;3.65;3.25;;;;;;;21.85;60.92;99145.28;2065224;28;20046;-46
2022/10/12 02:45:50;;;;;;;3.97;3.50;;;;;;;21.85;60.99;99143.41;2059653;28;20563;-46
2022/10/12 02:46:52;;;;;;;3.88;3.47;;;;;;;21.85;61.18;99145.28;2062650;28;20046;-46
2022/10/12 02:47:58;;;;;;;4.35;3.88;;;;;;;21.84;61.17;99141.78;2059968;28;20786;-48
2022/10/12 02:49:02;;;;;;;3.95;3.58;;;;;;;21.85;61.13;99145.28;2059934;28;20058;-47
2022/10/12 02:50:07;;;;;;;4.15;3.75;;;;;;;21.84;61.33;99139.06;2061212;28;20108;-47
2022/10/12 02:51:09;;;;;;;3.33;3.03;;;;;;;21.84;61.24;99143.63;2060230;28;20050;-46
2022/10/12 02:52:11;;;;;;;4.07;3.53;;;;;;;21.85;61.13;99145.28;2060909;28;20108;-47
2022/10/12 02:53:13;;;;;;;4.18;3.78;;;;;;;21.84;61.27;99141.78;2065222;28;20046;-46
2022/10/12 02:54:15;;;;;;;4.38;3.70;;;;;;;21.85;61.00;99134.50;2060558;28;20137;-46
2022/10/12 02:55:16;;;;;;;4.78;3.47;;;;;;;21.85;60.97;99139.88;2062810;28;20748;-46
2022/10/12 02:56:18;;;;;;;4.13;3.60;;;;;;;21.86;61.17;99136.13;2064076;28;20124;-47
2022/10/12 02:57:19;;;;;;;4.05;3.47;;;;;;;21.87;61.14;99137.81;2062797;28;20115;-46
2022/10/12 02:58:20;;;;;;;3.55;3.20;;;;;;;21.84;60.93;99135.50;2061688;28;20677;-47
2022/10/12 02:59:21;;;;;;;4.85;3.83;;;;;;;21.83;61.08;99140.09;2061128;28;20493;-48
2022/10/12 03:00:23;;;;;;;4.20;3.80;;;;;;;21.85;61.15;99135.31;2062460;28;20559;-48
2022/10/12 03:01:24;;;;;;;3.90;3.50;;;;;;;21.84;60.96;99133.66;2061431;28;20042;-51
2022/10/12 03:02:26;;;;;;;4.82;3.55;;;;;;;21.84;61.07;99139.06;2062368;28;20050;-47
2022/10/12 03:03:29;;;;;;;3.78;3.47;;;;;;;21.84;60.98;99135.50;2061276;28;20050;-45
2022/10/12 03:04:30;;;;;;;4.13;3.72;;;;;;;21.83;60.95;99136.56;2060418;28;20065;-46
2022/10/12 03:05:31;;;;;;;4.43;3.85;;;;;;;21.84;60.82;99144.47;2059760;28;20479;-46
2022/10/12 03:06:32;;;;;;;3.95;3.55;;;;;;;21.85;61.06;99142.59;2059486;28;20634;-47
2022/10/12 03:07:34;;;;;;;4.07;3.70;;;;;;;21.83;61.18;99133.88;2060616;28;20100;-45
2022/10/12 03:08:35;;;;;;;4.68;3.40;;;;;;;21.82;61.04;99134.91;2063982;28;20054;-47
2022/10/12 03:09:37;;;;;;;4.65;3.85;;;;;;;21.82;61.09;99134.91;2060504;28;20535;-50
2022/10/12 03:10:38;;;;;;;4.22;3.50;;;;;;;21.83;61.07;99141.97;2061081;28;20073;-45
2022/10/12 03:11:42;;;;;;;5.88;4.35;;;;;;;21.83;61.01;99136.56;2057612;28;20085;-45
2022/10/12 03:12:43;;;;;;;4.18;3.78;;;;;;;21.83;60.85;99136.56;2061890;28;20712;-46
2022/10/12 03:13:45;;;;;;;5.40;4.20;;;;;;;21.81;61.00;99130.53;2060544;28;20061;-48
2022/10/12 03:14:45;;;;;;;3.58;3.15;;;;;;;21.82;60.94;99134.91;2063206;28;20058;-46
2022/10/12 03:15:47;;;;;;;4.25;3.85;;;;;;;21.81;61.14;99135.94;2059997;28;20520;-49
2022/10/12 03:16:48;;;;;;;4.75;3.50;;;;;;;21.81;60.93;99134.09;2060622;28;20134;-48
2022/10/12 03:17:50;;;;;;;4.18;3.40;;;;;;;21.82;61.08;99143.00;2063530;28;20050;-45
2022/10/12 03:18:52;;;;;;;4.22;3.60;;;;;;;21.82;60.86;99135.75;2056838;28;20050;-48
2022/10/12 03:19:54;;;;;;;4.82;4.30;;;;;;;21.81;61.03;99134.09;2060328;28;20101;-47
2022/10/12 03:20:55;;;;;;;4.40;3.70;;;;;;;21.82;60.86;99143.00;2059694;28;20058;-47
2022/10/12 03:21:56;;;;;;;4.65;4.15;;;;;;;21.81;61.09;99133.25;2057585;28;20476;-47
2022/10/12 03:22:57;;;;;;;4.38;3.65;;;;;;;21.79;60.94;99133.47;2061553;28;20147;-46
2022/10/12 03:23:59;;;;;;;4.30;3.53;;;;;;;21.80;60.90;99137.00;2058999;28;20058;-46
2022/10/12 03:25:00;;;;;;;4.22;3.83;;;;;;;21.82;60.90;99129.50;2060454;28;20062;-49
2022/10/12 03:26:02;;;;;;;3.60;2.90;;;;;;;21.82;61.02;99132.22;2062106;28;20952;-46
2022/10/12 03:27:03;;;;;;;4.18;3.58;;;;;;;21.81;61.16;99131.41;2061632;28;20042;-46
2022/10/12 03:28:04;;;;;;;4.28;3.88;;;;;;;21.80;60.68;99129.72;2064070;28;20149;-47
2022/10/12 03:29:05;;;;;;;5.55;4.32;;;;;;;21.80;61.08;99127.00;2064547;28;20119;-46
2022/10/12 03:30:08;;;;;;;;;;;;;;;21.69;61.42;99121.44;2061679;28;20050;-46
2022/10/12 03:31:09;;;;;;;4.05;3.53;;;;;;;21.74;61.45;99127.03;2059378;28;19968;-46
2022/10/12 03:32:10;;;;;;;3.70;3.40;;;;;;;21.77;61.05;99121.22;2058583;28;20058;-47
2022/10/12 03:33:12;;;;;;;5.65;3.70;;;;;;;21.78;61.20;99128.25;2062391;28;20442;-46
2022/10/12 03:34:14;;;;;;;3.40;3.10;;;;;;;21.80;60.97;99126.19;2062046;28;20124;-46
2022/10/12 03:35:16;;;;;;;3.47;3.17;;;;;;;21.80;61.21;99128.88;2061949;28;20085;-48
2022/10/12 03:36:18;;;;;;;3.60;3.30;;;;;;;21.79;60.93;99121.84;2058989;28;20046;-46
2022/10/12 03:37:19;;;;;;;4.25;3.58;;;;;;;21.79;61.19;99129.94;2061382;28;20488;-48
2022/10/12 03:38:21;;;;;;;4.72;3.53;;;;;;;21.78;60.92;99129.09;2060798;28;20053;-47
2022/10/12 03:39:22;;;;;;;3.90;3.53;;;;;;;21.79;61.05;99125.38;2059231;28;20480;-47
2022/10/12 03:40:23;;;;;;;4.00;3.70;;;;;;;21.78;61.13;99128.25;2064289;28;20046;-46
2022/10/12 03:41:24;;;;;;;4.13;3.63;;;;;;;21.78;61.02;99126.38;2058250;28;20423;-46
2022/10/12 03:42:26;;;;;;;3.70;3.40;;;;;;;21.79;60.91;99127.25;2060473;28;20050;-49
2022/10/12 03:43:28;;;;;;;4.90;3.95;;;;;;;21.79;60.95;99127.25;2061229;28;20099;-48
2022/10/12 03:44:28;;;;;;;4.28;3.88;;;;;;;21.77;60.90;99132.03;2063314;28;20054;-47
2022/10/12 03:45:30;;;;;;;3.70;3.40;;;;;;;21.78;61.04;99139.06;2063114;28;20501;-46
2022/10/12 03:46:31;;;;;;;4.22;3.83;;;;;;;21.79;60.83;99127.25;2060226;28;20061;-49
2022/10/12 03:47:33;;;;;;;4.55;3.58;;;;;;;21.78;60.90;99131.78;2061236;28;20538;-46
2022/10/12 03:48:34;;;;;;;3.38;3.00;;;;;;;21.80;60.88;99126.19;2062215;28;20046;-47
2022/10/12 03:49:37;;;;;;;4.45;3.42;;;;;;;21.78;60.80;99129.09;2061925;28;20370;-48
2022/10/12 03:50:38;;;;;;;4.63;3.85;;;;;;;21.77;60.79;99123.91;2063460;28;20099;-46
2022/10/12 03:51:39;;;;;;;3.63;2.85;;;;;;;21.76;61.15;99131.19;2061524;28;20835;-45
2022/10/12 03:52:40;;;;;;;5.28;3.45;;;;;;;21.76;60.91;99127.66;2058144;28;20050;-46
2022/10/12 03:53:42;;;;;;;3.88;3.45;;;;;;;21.77;61.23;99126.63;2059266;28;20126;-48
2022/10/12 03:54:43;;;;;;;4.10;3.30;;;;;;;21.77;61.08;99132.03;2058314;28;20504;-46
2022/10/12 03:55:45;;;;;;;4.20;3.80;;;;;;;21.77;61.04;99132.03;2061414;28;20062;-46
2022/10/12 03:56:46;;;;;;;4.25;3.42;;;;;;;21.77;60.85;99129.31;2061364;28;20042;-45
2022/10/12 03:57:47;;;;;;;5.13;3.58;;;;;;;21.78;60.91;99139.06;2064498;28;20076;-46
2022/10/12 03:58:48;;;;;;;3.70;2.88;;;;;;;21.77;60.90;99135.53;2062107;28;20038;-45
2022/10/12 03:59:50;;;;;;;4.18;3.70;;;;;;;21.77;61.08;99138.25;2063422;28;20046;-47
2022/10/12 04:00:51;;;;;;;5.25;3.85;;;;;;;21.77;60.92;99138.25;2061780;28;20050;-46
2022/10/12 04:01:53;;;;;;;4.20;3.08;;;;;;;21.76;61.08;99138.47;2061478;28;20057;-46
2022/10/12 04:02:54;;;;;;;3.92;3.35;;;;;;;21.77;60.92;99140.13;2057943;28;20065;-46
2022/10/12 04:03:56;;;;;;;5.72;3.22;;;;;;;21.76;61.09;99138.47;2060506;28;20527;-47
2022/10/12 04:04:58;;;;;;;3.38;3.08;;;;;;;21.76;61.25;99142.00;2061081;28;20284;-47
2022/10/12 04:06:00;;;;;;;3.65;3.15;;;;;;;21.75;61.11;99137.63;2059091;28;20061;-48
2022/10/12 04:07:01;;;;;;;3.13;2.92;;;;;;;21.74;60.85;99141.38;2058196;28;20120;-48
2022/10/12 04:08:03;;;;;;;4.43;3.40;;;;;;;21.76;60.96;99143.88;2065475;28;20938;-47
2022/10/12 04:09:04;;;;;;;3.25;2.95;;;;;;;21.76;61.35;99143.88;2059043;28;20042;-47
2022/10/12 04:10:07;;;;;;;4.05;3.40;;;;;;;21.75;60.83;99140.31;2059950;28;21014;-46
2022/10/12 04:11:08;;;;;;;3.63;3.33;;;;;;;21.75;61.13;99144.88;2063341;28;20463;-47
2022/10/12 04:12:10;;;;;;;4.60;3.35;;;;;;;21.75;61.07;99144.88;2056090;28;20093;-46
2022/10/12 04:13:10;;;;;;;3.88;3.50;;;;;;;21.76;60.78;99143.88;2060593;28;20058;-47
2022/10/12 04:14:12;;;;;;;;;;;;;;;21.64;61.16;99149.06;2064717;28;20062;-47
2022/10/12 04:15:13;;;;;;;4.30;3.10;;;;;;;21.66;61.36;99135.38;2062073;28;19922;-48
2022/10/12 04:16:15;;;;;;;3.85;3.13;;;;;;;21.69;61.09;99145.75;2060710;28;20137;-46
2022/10/12 04:17:16;;;;;;;3.80;3.30;;;;;;;21.70;61.40;99144.69;2059139;28;20057;-46
2022/10/12 04:18:18;;;;;;;4.18;3.05;;;;;;;;;;2055243;28;24471;-46
2022/10/12 04:19:19;;;;;;;3.90;3.60;;;;;;;21.74;61.05;99154.03;2061251;28;20069;-46
2022/10/12 04:20:22;;;;;;;4.78;3.63;;;;;;;21.75;60.97;99153.00;2062014;28;20611;-47
2022/10/12 04:21:24;;;;;;;3.67;3.38;;;;;;;21.75;61.10;99150.28;2060978;28;20049;-50
2022/10/12 04:22:26;;;;;;;4.00;3.70;;;;;;;21.74;60.93;99154.88;2067864;28;20057;-45
2022/10/12 04:23:27;;;;;;;4.93;4.43;;;;;;;21.74;61.04;99165.66;2056985;28;20062;-47
2022/10/12 04:24:29;;;;;;;5.88;4.18;;;;;;;21.74;60.99;99159.44;2061138;28;20662;-46
2022/10/12 04:25:30;;;;;;;3.53;3.22;;;;;;;21.73;60.96;99152.38;2058663;28;22024;-46
2022/10/12 04:26:31;;;;;;;;;;;;;;;21.62;61.30;99157.41;2061882;28;20271;-46
2022/10/12 04:27:32;;;;;;;3.83;3.33;;;;;;;21.65;61.35;99161.53;2062868;28;20416;-47
2022/10/12 04:28:33;;;;;;;;;;;;;;;21.58;61.45;99163.41;2063606;28;20057;-47
2022/10/12 04:29:34;;;;;;;;;;;;;;;21.53;61.58;99157.81;2061617;28;19922;-47
2022/10/12 04:30:36;;;;;;;3.40;3.10;;;;;;;21.57;61.76;99162.59;2058264;28;19930;-46
2022/10/12 04:31:36;;;;;;;3.80;3.50;;;;;;;21.61;61.35;99169.22;2058919;28;20799;-45
2022/10/12 04:32:38;;;;;;;3.72;3.17;;;;;;;21.65;61.27;99166.94;2062496;28;20045;-47
2022/10/12 04:33:39;;;;;;;6.65;3.78;;;;;;;21.67;61.25;99167.53;2062187;28;20057;-47
2022/10/12 04:34:41;;;;;;;6.22;3.80;;;;;;;21.68;61.33;99166.53;2060291;28;20627;-46
2022/10/12 04:35:43;;;;;;;4.10;3.17;;;;;;;21.67;61.17;99167.53;2059145;28;20100;-48
2022/10/12 04:36:45;;;;;;;3.28;2.95;;;;;;;21.68;61.34;99169.22;2060853;28;20038;-46
2022/10/12 04:37:45;;;;;;;3.47;3.17;;;;;;;21.69;61.23;99178.13;2061052;28;20049;-46
2022/10/12 04:38:47;;;;;;;4.55;3.75;;;;;;;21.71;61.18;99173.38;2059998;28;20103;-46
2022/10/12 04:39:48;;;;;;;3.45;3.03;;;;;;;21.69;61.12;99170.03;2059609;28;20128;-46
2022/10/12 04:40:50;;;;;;;3.83;3.38;;;;;;;21.70;60.96;99171.69;2061351;28;20390;-47
2022/10/12 04:41:50;;;;;;;3.90;3.53;;;;;;;21.71;61.19;99173.38;2059460;28;20363;-47
2022/10/12 04:42:52;;;;;;;4.00;3.30;;;;;;;21.71;61.32;99174.19;2061402;28;20066;-47
2022/10/12 04:43:53;;;;;;;3.22;2.95;;;;;;;21.70;61.22;99171.69;2061692;28;20049;-47
2022/10/12 04:44:55;;;;;;;5.88;3.63;;;;;;;21.70;61.00;99169.81;2060526;28;20084;-47
2022/10/12 04:45:57;;;;;;;3.92;3.63;;;;;;;21.68;61.26;99169.22;2057996;28;20050;-47
2022/10/12 04:46:59;;;;;;;3.65;3.35;;;;;;;21.68;60.96;99160.28;2059742;28;20980;-47
2022/10/12 04:48:00;;;;;;;4.63;4.07;;;;;;;21.69;61.33;99164.66;2056605;28;20107;-47
2022/10/12 04:49:01;;;;;;;3.88;3.38;;;;;;;21.69;61.30;99170.03;2059752;28;20562;-45
2022/10/12 04:50:02;;;;;;;3.78;3.20;;;;;;;21.68;60.96;99165.69;2055567;28;20054;-45
2022/10/12 04:51:06;;;;;;;3.72;3.42;;;;;;;21.70;60.87;99174.38;2058985;28;20663;-49
2022/10/12 04:52:07;;;;;;;4.45;3.97;;;;;;;21.70;61.06;99167.13;2064588;28;20054;-45
2022/10/12 04:53:09;;;;;;;4.80;3.42;;;;;;;21.68;61.18;99161.13;2060438;28;20688;-46
2022/10/12 04:54:10;;;;;;;4.82;3.50;;;;;;;21.68;61.14;99160.28;2060014;28;20058;-48
2022/10/12 04:55:11;;;;;;;5.82;3.42;;;;;;;21.70;61.14;99163.59;2059428;28;20947;-47
2022/10/12 04:56:12;;;;;;;4.22;3.80;;;;;;;21.68;61.05;99160.28;2065295;28;20108;-46
2022/10/12 04:57:14;;;;;;;3.58;3.28;;;;;;;21.68;61.23;99163.00;2062925;28;20061;-47
2022/10/12 04:58:15;;;;;;;3.80;3.50;;;;;;;21.68;61.24;99160.28;2056951;28;20116;-47
2022/10/12 04:59:16;;;;;;;3.63;3.25;;;;;;;21.66;61.07;99146.16;2057836;28;21761;-47
2022/10/12 05:00:17;;;;;;;3.25;2.95;;;;;;;21.68;61.00;99157.59;2059257;28;20061;-47
2022/10/12 05:01:19;;;;;;;3.53;3.22;;;;;;;21.67;61.28;99151.34;2056276;28;20496;-47